createdAt,value
2019-02-12T00:00:00.653Z,101851.62
2019-02-12T00:02:28.298Z,101852.77
2019-02-12T00:04:55.821Z,101855.55
2019-02-12T00:07:23.961Z,101864.55
2019-02-12T00:09:51.349Z,101868.24
2019-02-12T00:12:18.637Z,101860.58
2019-02-12T00:14:46.124Z,101867.29
2019-02-12T00:17:14.111Z,101881.23
2019-02-12T00:19:42.534Z,101885.23
2019-02-12T00:22:10.305Z,101891.20
2019-02-12T00:24:38.152Z,101900.99
2019-02-12T00:27:05.917Z,101911.32
2019-02-12T00:29:33.265Z,101918.98
2019-02-12T00:32:00.727Z,101919.34
2019-02-12T00:34:28.019Z,101911.94
2019-02-12T00:36:55.458Z,101905.81
2019-02-12T00:39:23.527Z,101906.66
2019-02-12T00:41:51.342Z,101914.77
2019-02-12T00:44:18.618Z,101911.30
2019-02-12T00:46:45.999Z,101907.70
2019-02-12T00:49:13.834Z,101899.92
2019-02-12T00:51:42.174Z,101891.20
2019-02-12T00:54:09.961Z,101894.37
2019-02-12T00:56:37.175Z,101903.41
2019-02-12T00:59:05.152Z,101899.77
2019-02-12T01:01:32.691Z,101899.08
2019-02-12T01:04:02.034Z,101897.48
2019-02-12T01:06:29.619Z,101908.03
2019-02-12T01:08:57.390Z,101908.72
2019-02-12T01:11:24.967Z,101907.28
2019-02-12T01:13:53.383Z,101906.96
2019-02-12T01:16:20.766Z,101908.47
2019-02-12T01:18:48.380Z,101917.23
2019-02-12T01:21:15.817Z,101913.21
2019-02-12T01:23:43.220Z,101921.47
2019-02-12T01:26:10.614Z,101915.27
2019-02-12T01:28:38.160Z,101918.91
2019-02-12T01:31:05.959Z,101923.30
2019-02-12T01:33:33.440Z,101930.12
2019-02-12T01:36:01.196Z,101938.47
2019-02-12T01:38:28.458Z,101941.20
2019-02-12T01:40:55.944Z,101935.55
2019-02-12T01:43:23.204Z,101945.01
2019-02-12T01:45:50.779Z,101953.36
2019-02-12T01:48:18.248Z,101947.95
2019-02-12T01:50:46.386Z,101944.20
2019-02-12T01:53:13.573Z,101940.59
2019-02-12T01:55:41.118Z,101945.48
2019-02-12T01:58:09.118Z,101937.84
2019-02-12T02:00:37.170Z,101939.64
2019-02-12T02:03:04.991Z,101928.40
2019-02-12T02:05:32.365Z,101923.23
2019-02-12T02:07:59.584Z,101922.22
2019-02-12T02:10:27.355Z,101928.95
2019-02-12T02:12:55.039Z,101923.12
2019-02-12T02:15:22.297Z,101930.22
2019-02-12T02:17:50.251Z,101928.92
2019-02-12T02:20:18.461Z,101926.57
2019-02-12T02:22:45.986Z,101925.38
2019-02-12T02:25:14.007Z,101923.58
2019-02-12T02:27:41.415Z,101926.62
2019-02-12T02:30:10.780Z,101929.72
2019-02-12T02:32:38.044Z,101927.35
2019-02-12T02:35:05.618Z,101938.34
2019-02-12T02:37:33.096Z,101932.48
2019-02-12T02:40:00.709Z,101935.47
2019-02-12T02:42:28.051Z,101943.98
2019-02-12T02:44:55.513Z,101940.64
2019-02-12T02:47:23.121Z,101935.86
2019-02-12T02:49:51.198Z,101945.39
2019-02-12T02:52:19.165Z,101943.47
2019-02-12T02:54:46.831Z,101943.98
2019-02-12T02:57:14.688Z,101939.65
2019-02-12T02:59:42.311Z,101938.84
2019-02-12T03:02:10.270Z,101947.12
2019-02-12T03:04:37.580Z,101954.90
2019-02-12T03:07:05.886Z,101958.67
2019-02-12T03:09:33.582Z,101971.20
2019-02-12T03:12:01.141Z,101975.55
2019-02-12T03:14:28.284Z,101978.47
2019-02-12T03:16:55.789Z,101981.57
2019-02-12T03:19:23.074Z,101977.97
2019-02-12T03:21:50.889Z,101981.91
2019-02-12T03:24:18.468Z,101978.36
2019-02-12T03:26:46.102Z,101984.96
2019-02-12T03:29:13.624Z,101986.70
2019-02-12T03:31:42.985Z,101986.41
2019-02-12T03:34:11.438Z,101980.50
2019-02-12T03:36:39.159Z,101988.11
2019-02-12T03:39:06.919Z,101996.11
2019-02-12T03:41:34.156Z,101991.81
2019-02-12T03:44:01.999Z,102003.05
2019-02-12T03:46:30.310Z,101998.43
2019-02-12T03:48:57.985Z,102003.22
2019-02-12T03:51:26.007Z,102014.72
2019-02-12T03:53:53.428Z,102001.22
2019-02-12T03:56:21.405Z,102004.62
2019-02-12T03:58:49.091Z,102004.79
2019-02-12T04:01:16.574Z,102001.91
2019-02-12T04:03:45.220Z,102003.56
2019-02-12T04:06:12.684Z,102000.89
2019-02-12T04:08:40.271Z,102003.38
2019-02-12T04:11:07.655Z,102004.56
2019-02-12T04:13:35.415Z,102004.16
2019-02-12T04:16:02.927Z,102017.81
2019-02-12T04:18:30.499Z,102011.77
2019-02-12T04:20:58.739Z,102012.53
2019-02-12T04:23:27.029Z,102005.63
2019-02-12T04:25:54.890Z,102014.99
2019-02-12T04:28:22.267Z,102010.20
2019-02-12T04:30:49.550Z,102013.76
2019-02-12T04:33:17.336Z,102004.67
2019-02-12T04:35:45.108Z,102008.00
2019-02-12T04:38:12.776Z,102002.42
2019-02-12T04:40:40.435Z,102000.56
2019-02-12T04:43:08.411Z,101995.81
2019-02-12T04:45:35.672Z,101997.52
2019-02-12T04:48:03.184Z,102002.92
2019-02-12T04:50:30.934Z,102003.56
2019-02-12T04:52:58.575Z,102012.91
2019-02-12T04:55:26.247Z,102014.39
2019-02-12T04:57:53.559Z,102013.13
2019-02-12T05:00:21.266Z,102017.06
2019-02-12T05:02:48.807Z,102024.30
2019-02-12T05:05:16.499Z,102027.90
2019-02-12T05:07:43.757Z,102027.72
2019-02-12T05:10:13.849Z,102028.92
2019-02-12T05:12:41.283Z,102039.29
2019-02-12T05:15:09.069Z,102036.36
2019-02-12T05:17:36.776Z,102032.02
2019-02-12T05:20:07.361Z,102035.98
2019-02-12T05:22:43.238Z,102035.42
2019-02-12T05:25:05.338Z,102042.97
2019-02-12T05:27:33.325Z,102040.92
2019-02-12T05:30:00.868Z,102037.92
2019-02-12T05:32:29.131Z,102037.92
2019-02-12T05:34:57.156Z,102038.90
2019-02-12T05:37:24.658Z,102042.33
2019-02-12T05:39:52.330Z,102043.97
2019-02-12T05:42:20.008Z,102037.21
2019-02-12T05:44:47.537Z,102047.41
2019-02-12T05:47:14.918Z,102047.75
2019-02-12T05:49:42.509Z,102041.60
2019-02-12T05:52:09.892Z,102035.35
2019-02-12T05:54:37.344Z,102037.05
2019-02-12T05:57:05.100Z,102037.25
2019-02-12T05:59:32.482Z,102030.44
2019-02-12T06:01:59.612Z,102030.72
2019-02-12T06:04:26.913Z,102026.03
2019-02-12T06:06:54.852Z,102024.45
2019-02-12T06:09:22.166Z,102010.41
2019-02-12T06:11:49.693Z,102014.77
2019-02-12T06:14:17.302Z,102019.06
2019-02-12T06:16:44.763Z,102018.95
2019-02-12T06:19:12.169Z,102018.83
2019-02-12T06:21:39.447Z,102025.94
2019-02-12T06:24:07.195Z,102036.89
2019-02-12T06:26:35.714Z,102036.89
2019-02-12T06:29:03.308Z,102043.87
2019-02-12T06:31:30.531Z,102043.83
2019-02-12T06:33:57.973Z,102055.22
2019-02-12T06:36:25.254Z,102061.48
2019-02-12T06:38:53.332Z,102063.11
2019-02-12T06:41:21.355Z,102068.25
2019-02-12T06:43:49.091Z,102060.62
2019-02-12T06:46:16.824Z,102068.00
2019-02-12T06:48:44.010Z,102071.73
2019-02-12T06:51:11.277Z,102075.11
2019-02-12T06:53:39.031Z,102076.18
2019-02-12T06:56:06.419Z,102074.09
2019-02-12T06:58:34.005Z,102088.50
2019-02-12T07:01:01.686Z,102089.05
2019-02-12T07:04:03.908Z,102091.31
2019-02-12T07:07:28.668Z,102090.58
2019-02-12T07:10:08.242Z,102101.92
2019-02-12T07:13:16.330Z,102100.15
2019-02-12T07:16:08.941Z,102110.59
2019-02-12T07:19:29.885Z,102106.20
2019-02-12T07:22:45.073Z,102109.14
2019-02-12T07:25:58.070Z,102104.55
2019-02-12T07:29:27.394Z,102109.52
2019-02-12T07:32:53.609Z,102119.34
2019-02-12T07:35:54.436Z,102126.84
2019-02-12T07:39:24.935Z,102131.92
2019-02-12T07:42:38.821Z,102133.61
2019-02-12T07:45:58.414Z,102137.73
2019-02-12T07:49:02.245Z,102144.94
2019-02-12T07:52:21.759Z,102146.88
2019-02-12T07:55:46.644Z,102157.76
2019-02-12T07:59:05.474Z,102156.52
2019-02-12T08:02:20.811Z,102161.92
2019-02-12T08:05:28.643Z,102168.36
2019-02-12T08:08:36.763Z,102173.78
2019-02-12T08:11:24.525Z,102182.65
2019-02-12T08:14:25.033Z,102190.83
2019-02-12T08:17:59.573Z,102191.33
2019-02-12T08:21:14.565Z,102194.80
2019-02-12T08:24:58.859Z,102194.84
2019-02-12T08:28:33.774Z,102202.52
2019-02-12T08:32:01.907Z,102200.56
2019-02-12T08:35:09.354Z,102195.87
2019-02-12T08:38:20.443Z,102187.77
2019-02-12T08:41:46.945Z,102190.03
2019-02-12T08:44:46.781Z,102196.50
2019-02-12T08:47:39.183Z,102193.08
2019-02-12T08:50:50.559Z,102194.69
2019-02-12T08:53:58.983Z,102197.92
2019-02-12T08:57:18.247Z,102203.06
2019-02-12T09:00:15.553Z,102211.06
2019-02-12T09:03:33.170Z,102220.27
2019-02-12T09:07:02.333Z,102210.42
2019-02-12T09:10:36.542Z,102208.23
2019-02-12T09:14:06.822Z,102210.09
2019-02-12T09:17:41.823Z,102214.51
2019-02-12T09:21:05.561Z,102215.38
2019-02-12T09:24:10.794Z,102208.91
2019-02-12T09:27:48.781Z,102215.88
2019-02-12T09:31:33.642Z,102210.80
2019-02-12T09:35:12.223Z,102212.14
2019-02-12T09:38:46.302Z,102213.52
2019-02-12T09:41:36.532Z,102216.73
2019-02-12T09:44:52.660Z,102221.14
2019-02-12T09:48:06.623Z,102224.20
2019-02-12T09:51:24.136Z,102225.06
2019-02-12T09:54:43.509Z,102234.75
2019-02-12T09:57:54.471Z,102241.71
2019-02-12T10:00:50.800Z,102245.80
2019-02-12T10:04:31.530Z,102243.37
2019-02-12T10:07:29.266Z,102234.02
2019-02-12T10:10:20.410Z,102240.77
2019-02-12T10:13:42.437Z,102236.32
2019-02-12T10:16:43.280Z,102244.64
2019-02-12T10:19:30.202Z,102249.20
2019-02-12T10:23:06.192Z,102250.86
2019-02-12T10:25:38.000Z,102253.40
2019-02-12T10:29:09.214Z,102257.58
2019-02-12T10:31:42.304Z,102257.19
2019-02-12T10:34:11.042Z,102263.16
2019-02-12T10:36:38.701Z,102269.53
2019-02-12T10:39:11.542Z,102277.32
2019-02-12T10:41:39.002Z,102283.87
2019-02-12T10:44:06.609Z,102279.73
2019-02-12T10:46:34.632Z,102277.66
2019-02-12T10:49:02.129Z,102290.73
2019-02-12T10:51:30.485Z,102293.34
2019-02-12T10:53:58.101Z,102293.89
2019-02-12T10:56:26.183Z,102292.30
2019-02-12T10:58:54.056Z,102295.54
2019-02-12T11:01:21.314Z,102297.70
2019-02-12T11:03:48.874Z,102299.39
2019-02-12T11:06:16.112Z,102292.67
2019-02-12T11:08:44.001Z,102298.53
2019-02-12T11:11:11.612Z,102308.26
2019-02-12T11:13:41.214Z,102303.50
2019-02-12T11:16:08.598Z,102305.30
2019-02-12T11:18:36.254Z,102296.05
2019-02-12T11:21:11.540Z,102290.74
2019-02-12T11:23:33.527Z,102297.00
2019-02-12T11:26:01.167Z,102302.27
2019-02-12T11:28:29.283Z,102300.71
2019-02-12T11:30:57.047Z,102314.34
2019-02-12T11:33:25.032Z,102302.52
2019-02-12T11:35:52.733Z,102310.98
2019-02-12T11:38:20.644Z,102305.76
2019-02-12T11:40:48.218Z,102305.76
2019-02-12T11:43:15.519Z,102301.66
2019-02-12T11:45:42.744Z,102308.88
2019-02-12T11:48:10.413Z,102307.70
2019-02-12T11:50:37.655Z,102312.31
2019-02-12T11:53:05.835Z,102304.47
2019-02-12T11:55:36.852Z,102303.81
2019-02-12T11:58:04.426Z,102309.28
2019-02-12T12:00:38.287Z,102301.04
2019-02-12T12:03:05.892Z,102298.20
2019-02-12T12:05:34.018Z,102294.00
2019-02-12T12:08:01.848Z,102292.90
2019-02-12T12:10:29.594Z,102292.90
2019-02-12T12:12:57.733Z,102288.23
2019-02-12T12:15:25.189Z,102291.91
2019-02-12T12:17:52.682Z,102281.39
2019-02-12T12:20:21.308Z,102280.33
2019-02-12T12:22:49.362Z,102278.02
2019-02-12T12:25:19.161Z,102273.27
2019-02-12T12:27:47.435Z,102284.68
2019-02-12T12:30:15.342Z,102278.23
2019-02-12T12:32:43.044Z,102280.30
2019-02-12T12:35:11.277Z,102278.63
2019-02-12T12:37:38.812Z,102271.23
2019-02-12T12:40:06.727Z,102269.48
2019-02-12T12:42:34.249Z,102274.23
2019-02-12T12:45:05.134Z,102273.06
2019-02-12T12:47:32.753Z,102276.32
2019-02-12T12:50:00.337Z,102276.94
2019-02-12T12:52:27.889Z,102277.37
2019-02-12T12:54:59.902Z,102277.86
2019-02-12T12:57:26.882Z,102279.34
2019-02-12T12:59:54.969Z,102279.19
2019-02-12T13:02:22.634Z,102276.48
2019-02-12T13:04:50.071Z,102280.47
2019-02-12T13:07:17.356Z,102279.11
2019-02-12T13:09:44.709Z,102276.73
2019-02-12T13:12:12.256Z,102280.31
2019-02-12T13:14:40.318Z,102282.42
2019-02-12T13:17:07.942Z,102287.78
2019-02-12T13:19:35.164Z,102284.26
2019-02-12T13:22:03.030Z,102289.02
2019-02-12T13:24:30.297Z,102282.05
2019-02-12T13:26:58.655Z,102289.66
2019-02-12T13:29:25.915Z,102287.45
2019-02-12T13:31:57.004Z,102288.10
2019-02-12T13:34:24.666Z,102285.61
2019-02-12T13:36:52.438Z,102287.23
2019-02-12T13:39:20.126Z,102289.20
2019-02-12T13:41:47.672Z,102293.45
2019-02-12T13:44:15.069Z,102291.80
2019-02-12T13:46:42.648Z,102288.79
2019-02-12T13:49:10.514Z,102288.03
2019-02-12T13:51:38.594Z,102293.09
2019-02-12T13:54:06.094Z,102296.12
2019-02-12T13:56:33.790Z,102297.31
2019-02-12T13:59:01.672Z,102301.92
2019-02-12T14:01:29.046Z,102298.05
2019-02-12T14:03:57.245Z,102298.66
2019-02-12T14:06:25.099Z,102301.81
2019-02-12T14:08:52.279Z,102306.14
2019-02-12T14:11:19.918Z,102303.32
2019-02-12T14:13:48.123Z,102296.72
2019-02-12T14:16:15.420Z,102291.30
2019-02-12T14:18:43.281Z,102301.56
2019-02-12T14:21:10.527Z,102301.34
2019-02-12T14:23:37.682Z,102305.11
2019-02-12T14:26:05.507Z,102302.45
2019-02-12T14:28:32.928Z,102300.03
2019-02-12T14:31:01.153Z,102297.23
2019-02-12T14:33:28.542Z,102303.55
2019-02-12T14:35:56.022Z,102307.97
2019-02-12T14:38:23.785Z,102303.61
2019-02-12T14:40:51.444Z,102301.44
2019-02-12T14:43:19.249Z,102291.58
2019-02-12T14:45:46.392Z,102292.81
2019-02-12T14:48:13.767Z,102290.11
2019-02-12T14:50:41.562Z,102296.84
2019-02-12T14:53:09.717Z,102303.97
2019-02-12T14:55:37.420Z,102300.29
2019-02-12T14:58:04.847Z,102295.63
2019-02-12T15:00:32.658Z,102305.22
2019-02-12T15:03:00.115Z,102309.23
2019-02-12T15:05:28.163Z,102305.73
2019-02-12T15:07:55.969Z,102311.50
2019-02-12T15:10:23.941Z,102310.21
2019-02-12T15:12:51.624Z,102308.84
2019-02-12T15:15:19.294Z,102311.92
2019-02-12T15:17:46.886Z,102314.41
2019-02-12T15:20:14.705Z,102308.94
2019-02-12T15:22:41.950Z,102316.84
2019-02-12T15:25:13.823Z,102314.99
2019-02-12T15:27:41.258Z,102313.44
2019-02-12T15:30:10.886Z,102318.20
2019-02-12T15:32:38.382Z,102325.60
2019-02-12T15:35:07.965Z,102318.67
2019-02-12T15:37:35.885Z,102326.52
2019-02-12T15:40:04.511Z,102323.78
2019-02-12T15:42:32.365Z,102320.81
2019-02-12T15:44:59.553Z,102320.47
2019-02-12T15:47:27.502Z,102314.37
2019-02-12T15:49:55.129Z,102323.61
2019-02-12T15:52:22.327Z,102320.89
2019-02-12T15:54:49.792Z,102314.78
2019-02-12T15:57:16.904Z,102326.27
2019-02-12T15:59:44.319Z,102324.91
2019-02-12T16:02:13.598Z,102329.05
2019-02-12T16:04:41.652Z,102329.94
2019-02-12T16:07:08.894Z,102329.38
2019-02-12T16:09:36.608Z,102338.27
2019-02-12T16:12:06.002Z,102337.78
2019-02-12T16:14:33.605Z,102346.52
2019-02-12T16:17:00.899Z,102344.63
2019-02-12T16:19:29.979Z,102341.27
2019-02-12T16:21:58.492Z,102345.69
2019-02-12T16:24:25.814Z,102354.74
2019-02-12T16:26:53.613Z,102359.34
2019-02-12T16:29:21.967Z,102358.48
2019-02-12T16:31:49.660Z,102358.66
2019-02-12T16:34:17.310Z,102366.36
2019-02-12T16:36:45.170Z,102366.69
2019-02-12T16:39:12.284Z,102367.55
2019-02-12T16:41:39.680Z,102370.45
2019-02-12T16:44:07.844Z,102371.31
2019-02-12T16:46:35.822Z,102365.17
2019-02-12T16:49:03.893Z,102371.98
2019-02-12T16:51:31.556Z,102369.59
2019-02-12T16:53:59.802Z,102370.28
2019-02-12T16:56:27.623Z,102366.35
2019-02-12T16:59:03.258Z,102369.59
2019-02-12T17:01:25.345Z,102366.72
2019-02-12T17:03:52.801Z,102368.42
2019-02-12T17:06:20.333Z,102367.05
2019-02-12T17:08:48.363Z,102371.62
2019-02-12T17:11:16.024Z,102382.17
2019-02-12T17:13:43.445Z,102391.02
2019-02-12T17:16:14.030Z,102392.05
2019-02-12T17:18:43.593Z,102399.34
2019-02-12T17:21:12.231Z,102401.05
2019-02-12T17:23:40.078Z,102400.20
2019-02-12T17:26:16.099Z,102405.45
2019-02-12T17:28:37.859Z,102406.81
2019-02-12T17:31:05.230Z,102406.83
2019-02-12T17:33:33.024Z,102405.31
2019-02-12T17:36:00.789Z,102403.95
2019-02-12T17:38:28.018Z,102405.63
2019-02-12T17:40:56.225Z,102409.87
2019-02-12T17:43:24.546Z,102412.25
2019-02-12T17:45:51.798Z,102413.81
2019-02-12T17:48:19.087Z,102416.17
2019-02-12T17:50:46.331Z,102418.55
2019-02-12T17:53:13.567Z,102424.66
2019-02-12T17:55:41.353Z,102428.44
2019-02-12T17:58:13.187Z,102428.06
2019-02-12T18:00:43.312Z,102424.66
2019-02-12T18:03:10.574Z,102429.94
2019-02-12T18:05:38.234Z,102432.65
2019-02-12T18:08:06.972Z,102430.11
2019-02-12T18:10:34.710Z,102425.69
2019-02-12T18:13:02.472Z,102439.80
2019-02-12T18:15:29.776Z,102438.41
2019-02-12T18:17:57.023Z,102436.18
2019-02-12T18:20:26.635Z,102433.62
2019-02-12T18:22:54.246Z,102442.80
2019-02-12T18:25:21.822Z,102441.43
2019-02-12T18:27:49.407Z,102446.75
2019-02-12T18:30:16.994Z,102446.70
2019-02-12T18:32:44.453Z,102453.84
2019-02-12T18:35:12.245Z,102448.23
2019-02-12T18:37:40.062Z,102449.40
2019-02-12T18:40:09.486Z,102442.04
2019-02-12T18:42:37.280Z,102446.22
2019-02-12T18:45:06.971Z,102446.91
2019-02-12T18:47:34.855Z,102447.08
2019-02-12T18:50:02.691Z,102453.28
2019-02-12T18:52:31.252Z,102446.75
2019-02-12T18:54:58.870Z,102456.64
2019-02-12T18:57:26.197Z,102456.95
2019-02-12T18:59:53.974Z,102458.94
2019-02-12T19:02:21.371Z,102455.37
2019-02-12T19:04:48.805Z,102453.16
2019-02-12T19:07:16.862Z,102452.27
2019-02-12T19:09:44.142Z,102454.20
2019-02-12T19:12:11.990Z,102453.13
2019-02-12T19:14:39.672Z,102449.33
2019-02-12T19:17:07.386Z,102451.77
2019-02-12T19:19:34.567Z,102463.08
2019-02-12T19:22:02.656Z,102457.02
2019-02-12T19:24:30.142Z,102461.33
2019-02-12T19:26:58.218Z,102465.45
2019-02-12T19:29:25.938Z,102463.08
2019-02-12T19:31:59.169Z,102454.09
2019-02-12T19:34:23.406Z,102446.57
2019-02-12T19:36:51.609Z,102441.13
2019-02-12T19:39:19.123Z,102441.19
2019-02-12T19:41:46.628Z,102451.03
2019-02-12T19:44:14.033Z,102445.93
2019-02-12T19:46:41.617Z,102454.20
2019-02-12T19:49:09.050Z,102455.72
2019-02-12T19:51:36.583Z,102458.27
2019-02-12T19:54:04.316Z,102462.96
2019-02-12T19:56:31.831Z,102461.39
2019-02-12T19:58:59.332Z,102465.17
2019-02-12T20:01:26.700Z,102473.61
2019-02-12T20:03:54.771Z,102466.75
2019-02-12T20:06:22.658Z,102463.93
2019-02-12T20:08:50.198Z,102467.05
2019-02-12T20:11:18.512Z,102475.02
2019-02-12T20:13:45.630Z,102472.05
2019-02-12T20:16:12.981Z,102474.63
2019-02-12T20:18:40.518Z,102475.30
2019-02-12T20:21:08.041Z,102465.91
2019-02-12T20:23:35.373Z,102458.37
2019-02-12T20:26:03.097Z,102451.06
2019-02-12T20:28:30.806Z,102458.53
2019-02-12T20:30:58.066Z,102468.46
2019-02-12T20:33:25.630Z,102465.22
2019-02-12T20:35:53.156Z,102472.45
2019-02-12T20:38:20.629Z,102473.87
2019-02-12T20:40:48.129Z,102467.23
2019-02-12T20:43:16.224Z,102476.73
2019-02-12T20:45:43.368Z,102474.12
2019-02-12T20:48:17.638Z,102475.13
2019-02-12T20:50:44.775Z,102488.30
2019-02-12T20:53:11.978Z,102482.14
2019-02-12T20:55:39.254Z,102485.86
2019-02-12T20:58:06.996Z,102481.20
2019-02-12T21:00:34.759Z,102472.81
2019-02-12T21:03:02.270Z,102476.47
2019-02-12T21:05:30.211Z,102471.90
2019-02-12T21:07:57.630Z,102480.52
2019-02-12T21:10:25.090Z,102481.19
2019-02-12T21:12:52.722Z,102496.35
2019-02-12T21:15:20.620Z,102494.87
2019-02-12T21:17:48.306Z,102495.84
2019-02-12T21:20:15.690Z,102495.70
2019-02-12T21:22:43.189Z,102497.90
2019-02-12T21:25:11.193Z,102498.91
2019-02-12T21:27:38.434Z,102496.86
2019-02-12T21:30:12.668Z,102495.92
2019-02-12T21:32:41.043Z,102496.35
2019-02-12T21:35:08.876Z,102490.66
2019-02-12T21:37:36.618Z,102488.61
2019-02-12T21:40:06.804Z,102484.86
2019-02-12T21:42:36.415Z,102480.72
2019-02-12T21:45:04.656Z,102488.86
2019-02-12T21:47:32.310Z,102472.67
2019-02-12T21:49:59.449Z,102480.81
2019-02-12T21:52:27.453Z,102488.08
2019-02-12T21:54:55.311Z,102492.00
2019-02-12T21:57:22.509Z,102494.83
2019-02-12T21:59:49.839Z,102502.95
2019-02-12T22:02:17.702Z,102506.59
2019-02-12T22:04:44.860Z,102505.52
2019-02-12T22:07:12.859Z,102501.11
2019-02-12T22:09:40.880Z,102508.19
2019-02-12T22:12:08.714Z,102510.05
2019-02-12T22:14:36.106Z,102512.39
2019-02-12T22:17:08.939Z,102511.09
2019-02-12T22:19:37.248Z,102501.43
2019-02-12T22:22:04.992Z,102506.49
2019-02-12T22:24:32.715Z,102504.70
2019-02-12T22:26:59.878Z,102519.11
2019-02-12T22:29:27.794Z,102514.54
2019-02-12T22:31:55.498Z,102515.50
2019-02-12T22:34:23.206Z,102520.41
2019-02-12T22:36:51.045Z,102522.53
2019-02-12T22:39:18.342Z,102527.98
2019-02-12T22:41:46.088Z,102525.25
2019-02-12T22:44:13.348Z,102525.98
2019-02-12T22:46:40.528Z,102519.67
2019-02-12T22:49:08.602Z,102520.58
2019-02-12T22:51:36.249Z,102514.09
2019-02-12T22:54:04.316Z,102508.84
2019-02-12T22:56:31.728Z,102507.63
2019-02-12T22:58:59.913Z,102512.98
2019-02-12T23:01:38.475Z,102514.73
2019-02-12T23:04:06.506Z,102514.14
2019-02-12T23:06:33.902Z,102520.03
2019-02-12T23:09:01.265Z,102525.90
2019-02-12T23:11:28.664Z,102523.38
2019-02-12T23:13:56.404Z,102520.35
2019-02-12T23:16:23.673Z,102530.66
2019-02-12T23:18:51.144Z,102536.27
2019-02-12T23:21:18.484Z,102530.84
2019-02-12T23:23:45.641Z,102530.02
2019-02-12T23:26:13.174Z,102529.27
2019-02-12T23:28:40.970Z,102526.75
2019-02-12T23:31:08.637Z,102528.93
2019-02-12T23:33:36.497Z,102533.44
2019-02-12T23:36:04.422Z,102535.19
2019-02-12T23:38:31.808Z,102530.97
2019-02-12T23:40:59.095Z,102526.09
2019-02-12T23:43:26.863Z,102526.17
2019-02-12T23:45:54.092Z,102528.48
2019-02-12T23:48:22.171Z,102533.61
2019-02-12T23:50:49.786Z,102542.67
2019-02-12T23:53:17.339Z,102540.63
2019-02-12T23:55:44.870Z,102534.85
2019-02-12T23:58:12.271Z,102526.69
